createdAt,value
2023-02-17T00:01:29.734Z,8.70
2023-02-17T00:03:58.272Z,8.70
2023-02-17T00:06:30.356Z,8.70
2023-02-17T00:08:59.575Z,8.70
2023-02-17T00:11:28.448Z,8.70
2023-02-17T00:13:57.169Z,8.70
2023-02-17T00:16:27.316Z,8.70
2023-02-17T00:18:56.933Z,8.70
2023-02-17T00:21:29.246Z,8.70
2023-02-17T00:23:59.872Z,8.70
2023-02-17T00:26:28.376Z,8.60
2023-02-17T00:28:56.502Z,8.60
2023-02-17T00:31:25.501Z,8.70
2023-02-17T00:33:56.584Z,8.70
2023-02-17T00:36:26.235Z,8.70
2023-02-17T00:38:58.122Z,8.70
2023-02-17T00:41:28.043Z,8.70
2023-02-17T00:43:56.486Z,8.70
2023-02-17T00:46:25.283Z,8.70
2023-02-17T00:48:53.690Z,8.70
2023-02-17T00:51:22.258Z,8.70
2023-02-17T00:53:50.587Z,8.80
2023-02-17T00:56:20.431Z,8.80
2023-02-17T00:58:48.640Z,8.80
2023-02-17T01:01:16.882Z,8.80
2023-02-17T01:03:45.453Z,8.80
2023-02-17T01:06:23.016Z,8.90
2023-02-17T01:08:51.193Z,8.90
2023-02-17T01:11:22.694Z,8.90
2023-02-17T01:13:50.977Z,9.00
2023-02-17T01:16:21.509Z,9.00
2023-02-17T01:18:49.792Z,9.00
2023-02-17T01:21:19.083Z,9.00
2023-02-17T01:23:47.447Z,9.00
2023-02-17T01:26:17.146Z,9.00
2023-02-17T01:28:47.472Z,9.10
2023-02-17T01:31:16.303Z,9.10
2023-02-17T01:33:44.822Z,9.10
2023-02-17T01:36:18.333Z,9.10
2023-02-17T01:38:47.862Z,9.10
2023-02-17T01:41:18.073Z,9.20
2023-02-17T01:44:13.457Z,9.10
2023-02-17T01:46:43.253Z,9.10
2023-02-17T01:49:21.835Z,9.20
2023-02-17T01:51:54.649Z,9.20
2023-02-17T01:54:27.784Z,9.20
2023-02-17T01:56:58.211Z,9.20
2023-02-17T01:59:29.694Z,9.20
2023-02-17T02:02:02.040Z,9.20
2023-02-17T02:04:33.656Z,9.30
2023-02-17T02:07:02.046Z,9.30
2023-02-17T02:09:34.358Z,9.30
2023-02-17T02:12:02.894Z,9.30
2023-02-17T02:14:32.528Z,9.20
2023-02-17T02:17:12.264Z,9.20
2023-02-17T02:20:11.924Z,9.30
2023-02-17T02:23:14.873Z,9.30
2023-02-17T02:26:19.094Z,9.30
2023-02-17T02:29:06.340Z,9.30
2023-02-17T02:31:46.135Z,9.30
2023-02-17T02:34:22.055Z,9.30
2023-02-17T02:36:57.086Z,9.30
2023-02-17T02:39:29.608Z,9.30
2023-02-17T02:42:02.494Z,9.30
2023-02-17T02:44:30.695Z,9.30
2023-02-17T02:47:00.167Z,9.40
2023-02-17T02:49:32.169Z,9.40
2023-02-17T02:52:05.842Z,9.40
2023-02-17T02:54:42.668Z,9.40
2023-02-17T02:57:27.448Z,9.40
2023-02-17T03:00:16.990Z,9.40
2023-02-17T03:02:52.381Z,9.40
2023-02-17T03:05:34.441Z,9.50
2023-02-17T03:08:09.730Z,9.40
2023-02-17T03:10:45.531Z,9.50
2023-02-17T03:13:14.050Z,9.40
2023-02-17T03:15:43.264Z,9.40
2023-02-17T03:18:11.644Z,9.40
2023-02-17T03:20:45.159Z,9.50
2023-02-17T03:23:13.518Z,9.40
2023-02-17T03:25:41.986Z,9.40
2023-02-17T03:28:10.490Z,9.50
2023-02-17T03:30:39.042Z,9.50
2023-02-17T03:33:07.443Z,9.50
2023-02-17T03:35:35.968Z,9.50
2023-02-17T03:38:05.672Z,9.50
2023-02-17T03:40:33.907Z,9.60
2023-02-17T03:43:02.432Z,9.50
2023-02-17T03:45:30.905Z,9.50
2023-02-17T03:47:58.998Z,9.50
2023-02-17T03:50:27.614Z,9.60
2023-02-17T03:52:55.811Z,9.60
2023-02-17T03:55:25.370Z,9.60
2023-02-17T03:57:53.547Z,9.60
2023-02-17T04:00:22.195Z,9.60
2023-02-17T04:02:50.402Z,9.60
2023-02-17T04:05:18.807Z,9.60
2023-02-17T04:07:47.205Z,9.70
2023-02-17T04:10:15.887Z,9.70
2023-02-17T04:12:45.852Z,9.70
2023-02-17T04:15:14.226Z,9.60
2023-02-17T04:17:42.741Z,9.60
2023-02-17T04:20:11.978Z,9.70
2023-02-17T04:22:40.110Z,9.70
2023-02-17T04:25:08.419Z,9.70
2023-02-17T04:27:36.841Z,9.70
2023-02-17T04:30:09.854Z,9.80
2023-02-17T04:32:39.485Z,9.70
2023-02-17T04:35:08.953Z,9.80
2023-02-17T04:37:37.124Z,9.80
2023-02-17T04:40:10.386Z,9.70
2023-02-17T04:42:39.031Z,9.70
2023-02-17T04:45:09.478Z,9.70
2023-02-17T04:47:38.074Z,9.70
2023-02-17T04:50:08.319Z,9.80
2023-02-17T04:52:36.658Z,9.80
2023-02-17T04:55:05.634Z,9.80
2023-02-17T04:57:33.866Z,9.90
2023-02-17T05:00:02.013Z,9.90
2023-02-17T05:02:31.888Z,9.90
2023-02-17T05:05:00.403Z,9.90
2023-02-17T05:07:28.984Z,9.90
2023-02-17T05:09:57.656Z,9.90
2023-02-17T05:12:26.039Z,10.00
2023-02-17T05:14:54.207Z,10.00
2023-02-17T05:17:22.630Z,10.00
2023-02-17T05:19:52.512Z,10.00
2023-02-17T05:22:21.056Z,10.00
2023-02-17T05:24:49.192Z,10.00
2023-02-17T05:27:17.757Z,10.00
2023-02-17T05:29:46.375Z,10.00
2023-02-17T05:32:14.537Z,10.00
2023-02-17T05:34:42.995Z,10.00
2023-02-17T05:37:12.663Z,10.00
2023-02-17T05:39:41.159Z,10.00
2023-02-17T05:42:09.284Z,10.10
2023-02-17T05:44:37.471Z,10.10
2023-02-17T05:47:06.318Z,10.10
2023-02-17T05:49:34.507Z,10.10
2023-02-17T05:52:03.304Z,10.10
2023-02-17T05:54:32.925Z,10.10
2023-02-17T05:57:01.072Z,10.10
2023-02-17T05:59:29.426Z,10.10
2023-02-17T06:01:57.583Z,10.10
2023-02-17T06:04:25.707Z,10.10
2023-02-17T06:06:53.933Z,10.10
2023-02-17T06:09:22.354Z,10.10
2023-02-17T06:11:52.455Z,10.10
2023-02-17T06:14:20.696Z,10.10
2023-02-17T06:16:48.840Z,10.10
2023-02-17T06:19:17.033Z,10.10
2023-02-17T06:21:45.300Z,10.10
2023-02-17T06:24:13.974Z,10.10
2023-02-17T06:26:42.162Z,10.00
2023-02-17T06:29:12.076Z,10.00
2023-02-17T06:31:40.694Z,10.00
2023-02-17T06:34:08.893Z,10.10
2023-02-17T06:36:37.058Z,10.10
2023-02-17T06:39:05.500Z,10.10
2023-02-17T06:41:34.524Z,10.10
2023-02-17T06:44:02.961Z,10.10
2023-02-17T06:46:32.732Z,10.10
2023-02-17T06:49:01.541Z,10.10
2023-02-17T06:51:30.224Z,10.10
2023-02-17T06:53:58.479Z,10.10
2023-02-17T06:56:26.643Z,10.10
2023-02-17T06:58:55.190Z,10.10
2023-02-17T07:01:26.231Z,10.20
2023-02-17T07:03:56.298Z,10.20
2023-02-17T07:06:26.316Z,10.20
2023-02-17T07:08:55.635Z,10.10
2023-02-17T07:11:23.970Z,10.20
2023-02-17T07:13:52.310Z,10.20
2023-02-17T07:16:20.510Z,10.20
2023-02-17T07:18:48.960Z,10.20
2023-02-17T07:21:18.601Z,10.20
2023-02-17T07:23:46.986Z,10.20
2023-02-17T07:26:15.997Z,10.20
2023-02-17T07:28:44.621Z,10.20
2023-02-17T07:31:15.768Z,10.30
2023-02-17T07:33:45.492Z,10.30
2023-02-17T07:36:17.253Z,10.30
2023-02-17T07:38:46.870Z,10.30
2023-02-17T07:41:18.159Z,10.30
2023-02-17T07:43:47.389Z,10.40
2023-02-17T07:46:16.202Z,10.40
2023-02-17T07:48:44.380Z,10.40
2023-02-17T07:51:14.535Z,10.40
2023-02-17T07:53:43.482Z,10.40
2023-02-17T07:56:15.245Z,10.40
2023-02-17T07:58:44.794Z,10.40
2023-02-17T08:01:15.141Z,10.40
2023-02-17T08:03:43.929Z,10.40
2023-02-17T08:06:13.417Z,10.40
2023-02-17T08:08:59.792Z,10.40
2023-02-17T08:11:48.929Z,10.40
2023-02-17T08:14:18.566Z,10.50
2023-02-17T08:16:47.069Z,10.40
2023-02-17T08:19:15.308Z,10.40
2023-02-17T08:21:43.449Z,10.50
2023-02-17T08:24:12.610Z,10.50
2023-02-17T08:26:42.204Z,10.50
2023-02-17T08:29:10.459Z,10.50
2023-02-17T08:31:39.448Z,10.50
2023-02-17T08:34:09.756Z,10.60
2023-02-17T08:36:38.837Z,10.50
2023-02-17T08:39:08.811Z,10.60
2023-02-17T08:41:39.185Z,10.60
2023-02-17T08:44:12.314Z,10.60
2023-02-17T08:46:41.560Z,10.70
2023-02-17T08:49:10.320Z,10.70
2023-02-17T08:51:38.805Z,10.70
2023-02-17T08:54:08.070Z,10.80
2023-02-17T08:56:37.424Z,10.80
2023-02-17T08:59:06.045Z,10.90
2023-02-17T09:01:36.460Z,10.90
2023-02-17T09:04:07.068Z,10.90
2023-02-17T09:06:37.288Z,11.00
2023-02-17T09:09:07.419Z,11.00
2023-02-17T09:11:35.716Z,11.00
2023-02-17T09:14:04.010Z,11.00
2023-02-17T09:16:32.634Z,11.10
2023-02-17T09:19:02.286Z,11.10
2023-02-17T09:21:30.920Z,11.10
2023-02-17T09:23:59.071Z,11.20
2023-02-17T09:26:27.742Z,11.20
2023-02-17T09:28:57.581Z,11.20
2023-02-17T09:31:28.573Z,11.30
2023-02-17T09:33:57.140Z,11.30
2023-02-17T09:36:28.808Z,11.30
2023-02-17T09:38:57.595Z,11.30
2023-02-17T09:41:28.493Z,11.40
2023-02-17T09:43:57.089Z,11.40
2023-02-17T09:46:30.012Z,11.40
2023-02-17T09:49:02.390Z,11.40
2023-02-17T09:51:37.297Z,11.50
2023-02-17T09:54:12.477Z,11.50
2023-02-17T09:56:46.138Z,11.50
2023-02-17T09:59:20.044Z,11.60
2023-02-17T10:01:50.074Z,11.60
2023-02-17T10:04:22.812Z,11.60
2023-02-17T10:06:56.049Z,11.60
2023-02-17T10:09:29.902Z,11.70
2023-02-17T10:12:03.981Z,11.70
2023-02-17T10:14:37.882Z,11.70
2023-02-17T10:17:12.019Z,11.70
2023-02-17T10:19:50.329Z,11.70
2023-02-17T10:22:22.965Z,11.80
2023-02-17T10:24:51.138Z,11.80
2023-02-17T10:27:35.037Z,11.80
2023-02-17T10:30:25.309Z,11.90
2023-02-17T10:33:02.202Z,11.90
2023-02-17T10:35:51.083Z,12.00
2023-02-17T10:38:35.686Z,12.00
2023-02-17T10:41:07.097Z,12.00
2023-02-17T10:43:35.579Z,12.00
2023-02-17T10:46:07.224Z,12.10
2023-02-17T10:48:39.008Z,12.10
2023-02-17T10:51:08.201Z,12.10
2023-02-17T10:53:40.788Z,12.20
2023-02-17T10:56:14.786Z,12.20
2023-02-17T10:58:51.500Z,12.20
2023-02-17T11:01:20.374Z,12.20
2023-02-17T11:03:49.218Z,12.20
2023-02-17T11:06:20.127Z,12.30
2023-02-17T11:08:52.287Z,12.30
2023-02-17T11:11:22.485Z,12.30
2023-02-17T11:14:04.876Z,12.30
2023-02-17T11:16:37.863Z,12.30
2023-02-17T11:19:07.615Z,12.40
2023-02-17T11:21:36.554Z,12.30
2023-02-17T11:24:07.411Z,12.30
2023-02-17T11:26:37.249Z,12.40
2023-02-17T11:29:09.892Z,12.30
2023-02-17T11:31:38.343Z,12.30
2023-02-17T11:34:14.793Z,12.40
2023-02-17T11:36:46.355Z,12.40
2023-02-17T11:39:23.595Z,12.50
2023-02-17T11:41:51.751Z,12.50
2023-02-17T11:44:30.175Z,12.50
2023-02-17T11:47:10.875Z,12.50
2023-02-17T11:50:15.052Z,12.50
2023-02-17T11:52:58.645Z,12.50
2023-02-17T11:55:37.113Z,12.60
2023-02-17T11:58:21.276Z,12.50
2023-02-17T12:00:56.970Z,12.60
2023-02-17T12:03:43.120Z,12.60
2023-02-17T12:06:18.535Z,12.60
2023-02-17T12:09:01.086Z,12.60
2023-02-17T12:11:37.502Z,12.70
2023-02-17T12:14:21.434Z,12.70
2023-02-17T12:16:57.022Z,12.70
2023-02-17T12:19:39.408Z,12.70
2023-02-17T12:22:19.018Z,12.80
2023-02-17T12:25:12.998Z,12.80
2023-02-17T12:27:56.329Z,12.90
2023-02-17T12:30:33.304Z,12.90
2023-02-17T12:33:15.919Z,12.90
2023-02-17T12:35:51.413Z,12.90
2023-02-17T12:38:23.005Z,13.00
2023-02-17T12:40:54.900Z,12.90
2023-02-17T12:43:29.450Z,13.00
2023-02-17T12:46:01.429Z,13.00
2023-02-17T12:48:36.918Z,13.00
2023-02-17T12:51:10.723Z,12.90
2023-02-17T12:53:47.936Z,12.90
2023-02-17T12:56:34.753Z,12.90
2023-02-17T12:59:14.582Z,12.90
2023-02-17T13:01:50.882Z,12.90
2023-02-17T13:04:20.867Z,12.90
2023-02-17T13:06:54.947Z,12.90
2023-02-17T13:09:31.857Z,12.90
2023-02-17T13:12:39.094Z,12.80
2023-02-17T13:15:29.541Z,12.80
2023-02-17T13:18:03.141Z,12.80
2023-02-17T13:20:54.101Z,12.90
2023-02-17T13:23:31.919Z,12.80
2023-02-17T13:26:18.195Z,12.80
2023-02-17T13:28:53.297Z,12.80
2023-02-17T13:31:25.236Z,12.90
2023-02-17T13:33:56.101Z,12.80
2023-02-17T13:36:36.850Z,12.80
2023-02-17T13:39:08.815Z,12.80
2023-02-17T13:41:47.718Z,12.90
2023-02-17T13:44:28.836Z,12.90
2023-02-17T13:47:01.705Z,12.80
2023-02-17T13:49:33.167Z,12.60
2023-02-17T13:52:17.075Z,12.60
2023-02-17T13:54:54.008Z,12.50
2023-02-17T13:57:27.561Z,12.50
2023-02-17T14:00:11.057Z,12.50
2023-02-17T14:02:48.529Z,12.40
2023-02-17T14:05:22.704Z,12.30
2023-02-17T14:07:51.696Z,12.30
2023-02-17T14:10:23.638Z,12.20
2023-02-17T14:12:52.734Z,12.30
2023-02-17T14:15:23.641Z,12.20
2023-02-17T14:17:53.316Z,12.20
2023-02-17T14:20:29.770Z,12.20
2023-02-17T14:23:06.891Z,12.20
2023-02-17T14:25:37.256Z,12.20
2023-02-17T14:28:06.472Z,12.20
2023-02-17T14:30:36.778Z,12.10
2023-02-17T14:33:22.981Z,12.10
2023-02-17T14:35:54.335Z,12.10
2023-02-17T14:38:24.771Z,12.10
2023-02-17T14:40:53.530Z,12.00
2023-02-17T14:43:21.692Z,12.00
2023-02-17T14:45:50.729Z,11.90
2023-02-17T14:48:20.673Z,12.00
2023-02-17T14:50:49.304Z,12.00
2023-02-17T14:53:26.521Z,11.90
2023-02-17T14:56:00.363Z,11.90
2023-02-17T14:58:30.513Z,11.80
2023-02-17T15:00:59.106Z,11.80
2023-02-17T15:03:28.729Z,11.90
2023-02-17T15:05:57.099Z,11.80
2023-02-17T15:08:32.911Z,11.80
2023-02-17T15:11:02.454Z,11.80
2023-02-17T15:13:32.282Z,11.80
2023-02-17T15:16:00.827Z,11.80
2023-02-17T15:18:30.479Z,11.80
2023-02-17T15:20:58.650Z,11.60
2023-02-17T15:23:27.004Z,11.60
2023-02-17T15:25:56.654Z,11.60
2023-02-17T15:28:25.422Z,11.60
2023-02-17T15:30:56.387Z,11.60
2023-02-17T15:33:26.064Z,11.60
2023-02-17T15:35:56.420Z,11.60
2023-02-17T15:38:27.495Z,11.60
2023-02-17T15:40:58.735Z,11.60
2023-02-17T15:46:12.147Z,11.60
2023-02-17T15:48:40.361Z,11.60
2023-02-17T15:51:12.376Z,11.60
2023-02-17T15:53:40.589Z,11.50
2023-02-17T15:56:14.600Z,11.60
2023-02-17T15:58:44.776Z,11.60
2023-02-17T16:01:22.356Z,11.50
2023-02-17T16:03:50.775Z,11.50
2023-02-17T16:06:20.437Z,11.60
2023-02-17T16:08:48.927Z,11.50
2023-02-17T16:11:19.162Z,11.50
2023-02-17T16:13:48.418Z,11.50
2023-02-17T16:16:20.279Z,11.50
2023-02-17T16:18:48.959Z,11.40
2023-02-17T16:21:18.029Z,11.40
2023-02-17T16:23:47.916Z,11.50
2023-02-17T16:26:23.913Z,11.40
2023-02-17T16:28:52.430Z,11.40
2023-02-17T16:31:20.774Z,11.50
2023-02-17T16:33:49.348Z,11.40
2023-02-17T16:36:19.156Z,11.40
2023-02-17T16:38:51.363Z,11.40
2023-02-17T16:41:21.566Z,11.30
2023-02-17T16:43:49.752Z,11.40
2023-02-17T16:46:24.286Z,11.40
2023-02-17T16:48:52.468Z,11.40
2023-02-17T16:51:20.862Z,11.40
2023-02-17T16:53:50.610Z,11.40
2023-02-17T16:56:22.371Z,11.40
2023-02-17T16:58:50.885Z,11.40
2023-02-17T17:01:19.112Z,11.40
2023-02-17T17:03:47.773Z,11.30
2023-02-17T17:06:21.751Z,11.40
2023-02-17T17:08:51.701Z,11.40
2023-02-17T17:11:22.184Z,11.30
2023-02-17T17:13:51.296Z,11.40
2023-02-17T17:16:22.372Z,11.40
2023-02-17T17:18:50.822Z,11.40
2023-02-17T17:21:20.724Z,11.40
2023-02-17T17:23:51.159Z,11.40
2023-02-17T17:26:25.950Z,11.40
2023-02-17T17:28:55.120Z,11.40
2023-02-17T17:31:24.372Z,11.40
2023-02-17T17:33:53.715Z,11.40
2023-02-17T17:36:26.623Z,11.40
2023-02-17T17:38:57.943Z,11.40
2023-02-17T17:41:27.725Z,11.30
2023-02-17T17:43:56.013Z,11.30
2023-02-17T17:46:26.354Z,11.20
2023-02-17T17:48:55.038Z,11.10
2023-02-17T17:51:24.416Z,11.00
2023-02-17T17:53:53.125Z,10.90
2023-02-17T17:56:26.235Z,10.90
2023-02-17T17:58:54.733Z,10.90
2023-02-17T18:01:23.559Z,10.90
2023-02-17T18:03:52.316Z,10.80
2023-02-17T18:06:23.962Z,10.80
2023-02-17T18:08:54.723Z,10.70
2023-02-17T18:11:26.421Z,10.70
2023-02-17T18:13:59.435Z,10.70
2023-02-17T18:16:29.873Z,10.70
2023-02-17T18:18:59.431Z,10.60
2023-02-17T18:21:27.614Z,10.60
2023-02-17T18:23:55.957Z,10.50
2023-02-17T18:26:25.561Z,10.40
2023-02-17T18:28:53.719Z,10.40
2023-02-17T18:31:22.085Z,10.30
2023-02-17T18:33:50.581Z,10.20
2023-02-17T18:36:22.401Z,10.00
2023-02-17T18:38:51.054Z,9.90
2023-02-17T18:41:20.465Z,9.80
2023-02-17T18:43:50.305Z,9.70
2023-02-17T18:46:18.800Z,9.70
2023-02-17T18:48:47.793Z,9.60
2023-02-17T18:51:19.523Z,9.40
2023-02-17T18:53:49.030Z,9.40
2023-02-17T18:56:21.177Z,9.40
2023-02-17T18:58:51.838Z,9.40
2023-02-17T19:01:23.020Z,9.30
2023-02-17T19:03:51.965Z,9.20
2023-02-17T19:06:23.606Z,9.10
2023-02-17T19:08:52.657Z,9.10
2023-02-17T19:11:21.735Z,9.10
2023-02-17T19:13:52.348Z,9.00
2023-02-17T19:16:22.427Z,9.00
2023-02-17T19:18:50.777Z,9.00
2023-02-17T19:21:19.816Z,8.90
2023-02-17T19:23:48.154Z,8.90
2023-02-17T19:26:17.978Z,8.70
2023-02-17T19:28:46.925Z,8.80
2023-02-17T19:31:19.114Z,8.80
2023-02-17T19:33:48.127Z,8.70
2023-02-17T19:36:18.470Z,8.60
2023-02-17T19:38:47.047Z,8.70
2023-02-17T19:41:15.964Z,8.70
2023-02-17T19:43:44.581Z,8.60
2023-02-17T19:46:14.162Z,8.60
2023-02-17T19:48:43.807Z,8.50
2023-02-17T19:51:13.960Z,8.60
2023-02-17T19:53:43.451Z,8.50
2023-02-17T19:56:13.291Z,8.50
2023-02-17T19:58:42.425Z,8.50
2023-02-17T20:01:12.247Z,8.50
2023-02-17T20:03:40.539Z,8.40
2023-02-17T20:06:12.654Z,8.40
2023-02-17T20:08:40.945Z,8.40
2023-02-17T20:11:10.441Z,8.40
2023-02-17T20:13:45.624Z,8.30
2023-02-17T20:16:16.890Z,8.30
2023-02-17T20:18:46.652Z,8.20
2023-02-17T20:21:22.478Z,8.30
2023-02-17T20:23:51.359Z,8.20
2023-02-17T20:26:22.146Z,8.20
2023-02-17T20:28:50.752Z,8.20
2023-02-17T20:31:19.671Z,8.10
2023-02-17T20:33:48.235Z,8.10
2023-02-17T20:36:18.730Z,8.20
2023-02-17T20:38:47.109Z,8.10
2023-02-17T20:41:18.162Z,8.00
2023-02-17T20:43:46.696Z,8.10
2023-02-17T20:46:17.598Z,8.00
2023-02-17T20:48:45.805Z,8.00
2023-02-17T20:51:14.061Z,8.00
2023-02-17T20:53:43.608Z,8.00
2023-02-17T20:56:14.633Z,8.00
2023-02-17T20:58:43.081Z,8.00
2023-02-17T21:01:12.118Z,7.90
2023-02-17T21:03:40.403Z,8.00
2023-02-17T21:06:20.520Z,7.90
2023-02-17T21:08:52.273Z,7.90
2023-02-17T21:11:20.786Z,7.80
2023-02-17T21:13:49.228Z,7.80
2023-02-17T21:16:21.074Z,7.80
2023-02-17T21:18:49.294Z,7.80
2023-02-17T21:21:17.641Z,7.80
2023-02-17T21:23:47.932Z,7.80
2023-02-17T21:26:18.220Z,7.70
2023-02-17T21:28:47.358Z,7.70
2023-02-17T21:31:16.257Z,7.70
2023-02-17T21:33:44.824Z,7.70
2023-02-17T21:36:15.953Z,7.70
2023-02-17T21:38:44.201Z,7.70
2023-02-17T21:41:15.000Z,7.60
2023-02-17T21:44:02.346Z,7.70
2023-02-17T21:46:31.460Z,7.60
2023-02-17T21:49:01.805Z,7.60
2023-02-17T21:51:30.454Z,7.60
2023-02-17T21:53:59.735Z,7.60
2023-02-17T21:56:28.162Z,7.50
2023-02-17T21:58:57.817Z,7.50
2023-02-17T22:01:27.877Z,7.50
2023-02-17T22:03:57.702Z,7.50
2023-02-17T22:06:27.992Z,7.50
2023-02-17T22:08:57.095Z,7.50
2023-02-17T22:11:29.029Z,7.40
2023-02-17T22:14:01.058Z,7.40
2023-02-17T22:16:31.548Z,7.40
2023-02-17T22:18:59.881Z,7.40
2023-02-17T22:21:28.054Z,7.40
2023-02-17T22:23:56.524Z,7.40
2023-02-17T22:26:26.674Z,7.30
2023-02-17T22:28:55.175Z,7.40
2023-02-17T22:31:27.463Z,7.40
2023-02-17T22:33:58.026Z,7.30
2023-02-17T22:36:27.815Z,7.20
2023-02-17T22:38:56.372Z,7.20
2023-02-17T22:41:26.050Z,7.30
2023-02-17T22:43:55.363Z,7.20
2023-02-17T22:46:27.281Z,7.20
2023-02-17T22:48:57.194Z,7.20
2023-02-17T22:51:28.238Z,7.20
2023-02-17T22:53:56.778Z,7.20
2023-02-17T22:56:25.785Z,7.20
2023-02-17T22:58:56.505Z,7.10
2023-02-17T23:01:26.507Z,7.20
2023-02-17T23:03:55.166Z,7.20
2023-02-17T23:06:25.887Z,7.20
2023-02-17T23:08:54.697Z,7.20
2023-02-17T23:11:39.020Z,7.20
2023-02-17T23:14:07.514Z,7.10
2023-02-17T23:16:37.670Z,7.20
2023-02-17T23:19:08.545Z,7.10
2023-02-17T23:21:36.955Z,7.10
2023-02-17T23:24:05.771Z,7.10
2023-02-17T23:26:34.147Z,7.10
2023-02-17T23:29:02.338Z,7.10
2023-02-17T23:31:30.996Z,7.00
2023-02-17T23:34:00.723Z,7.00
2023-02-17T23:36:29.198Z,6.90
2023-02-17T23:38:59.687Z,7.00
2023-02-17T23:41:28.508Z,7.00
2023-02-17T23:43:56.981Z,7.10
2023-02-17T23:46:25.336Z,7.00
2023-02-17T23:48:53.877Z,7.00
2023-02-17T23:51:23.737Z,7.00
2023-02-17T23:53:52.111Z,7.00
2023-02-17T23:56:23.077Z,7.00
2023-02-17T23:58:51.228Z,6.90
